createdAt,value
2018-08-06T00:00:26.940Z,1.00
2018-08-06T00:01:26.878Z,1.10
2018-08-06T00:02:26.908Z,0.90
2018-08-06T00:03:26.951Z,1.00
2018-08-06T00:04:26.878Z,1.30
2018-08-06T00:05:29.109Z,1.10
2018-08-06T00:06:27.117Z,1.30
2018-08-06T00:07:26.923Z,1.20
2018-08-06T00:08:26.932Z,1.20
2018-08-06T00:09:26.895Z,1.10
2018-08-06T00:10:27.120Z,1.10
2018-08-06T00:11:26.937Z,1.10
2018-08-06T00:12:26.945Z,1.10
2018-08-06T00:13:26.946Z,1.10
2018-08-06T00:14:26.604Z,1.20
2018-08-06T00:16:26.391Z,1.10
2018-08-06T00:17:26.889Z,0.90
2018-08-06T00:18:29.133Z,1.00
2018-08-06T00:19:27.121Z,1.10
2018-08-06T00:20:26.920Z,1.00
2018-08-06T00:21:27.134Z,1.00
2018-08-06T00:22:27.106Z,1.00
2018-08-06T00:23:26.968Z,1.20
2018-08-06T00:24:26.967Z,1.10
2018-08-06T00:25:27.124Z,1.10
2018-08-06T00:26:27.109Z,1.10
2018-08-06T00:27:26.949Z,1.10
2018-08-06T00:28:27.434Z,1.20
2018-08-06T00:29:26.972Z,1.00
2018-08-06T00:30:26.928Z,1.20
2018-08-06T00:31:27.020Z,1.20
2018-08-06T00:32:26.950Z,1.00
2018-08-06T00:33:27.019Z,1.40
2018-08-06T00:34:26.958Z,1.10
2018-08-06T00:35:26.984Z,1.00
2018-08-06T00:36:27.025Z,1.10
2018-08-06T00:37:27.453Z,1.40
2018-08-06T00:38:26.973Z,1.20
2018-08-06T00:39:26.948Z,1.10
2018-08-06T00:40:27.026Z,1.20
2018-08-06T00:41:26.934Z,1.20
2018-08-06T00:42:26.953Z,1.50
2018-08-06T00:43:26.992Z,1.00
2018-08-06T00:44:27.018Z,1.40
2018-08-06T00:45:26.936Z,1.30
2018-08-06T00:46:26.953Z,1.10
2018-08-06T00:47:27.165Z,0.90
2018-08-06T00:48:27.172Z,1.10
2018-08-06T00:49:26.921Z,1.20
2018-08-06T00:50:26.960Z,1.10
2018-08-06T00:51:26.915Z,1.20
2018-08-06T00:52:26.970Z,1.20
2018-08-06T00:53:26.985Z,1.30
2018-08-06T00:54:26.997Z,1.30
2018-08-06T00:55:26.998Z,1.30
2018-08-06T00:56:26.940Z,1.20
2018-08-06T00:57:26.946Z,1.30
2018-08-06T00:58:26.929Z,1.10
2018-08-06T00:59:27.147Z,1.30
2018-08-06T01:00:26.924Z,1.20
2018-08-06T01:01:26.947Z,1.20
2018-08-06T01:02:26.977Z,1.40
2018-08-06T01:03:26.951Z,1.30
2018-08-06T01:04:26.933Z,1.30
2018-08-06T01:05:26.963Z,1.40
2018-08-06T01:06:26.983Z,1.30
2018-08-06T01:07:33.019Z,1.30
2018-08-06T01:08:32.997Z,1.30
2018-08-06T01:09:26.988Z,1.30
2018-08-06T01:10:26.937Z,1.10
2018-08-06T01:11:26.957Z,1.10
2018-08-06T01:12:26.952Z,1.30
2018-08-06T01:13:27.020Z,1.30
2018-08-06T01:14:26.962Z,1.40
2018-08-06T01:15:27.065Z,1.30
2018-08-06T01:16:26.955Z,1.20
2018-08-06T01:17:26.897Z,1.10
2018-08-06T01:18:27.132Z,1.30
2018-08-06T01:19:26.895Z,1.30
2018-08-06T01:20:26.903Z,1.20
2018-08-06T01:21:26.936Z,1.30
2018-08-06T01:22:26.972Z,1.30
2018-08-06T01:23:26.961Z,1.10
2018-08-06T01:24:26.945Z,1.10
2018-08-06T01:25:26.940Z,1.20
2018-08-06T01:26:26.923Z,1.30
2018-08-06T01:27:26.997Z,1.40
2018-08-06T01:28:26.936Z,1.30
2018-08-06T01:29:26.938Z,1.20
2018-08-06T01:30:26.976Z,1.50
2018-08-06T01:31:26.916Z,1.30
2018-08-06T01:32:26.995Z,1.20
2018-08-06T01:33:26.947Z,1.40
2018-08-06T01:34:26.929Z,1.30
2018-08-06T01:35:26.989Z,1.40
2018-08-06T01:36:26.979Z,1.10
2018-08-06T01:37:26.910Z,1.40
2018-08-06T01:38:26.940Z,1.20
2018-08-06T01:39:26.921Z,1.30
2018-08-06T01:40:26.985Z,1.30
2018-08-06T01:41:26.938Z,1.40
2018-08-06T01:42:26.921Z,1.30
2018-08-06T01:43:26.960Z,1.40
2018-08-06T01:44:27.055Z,1.30
2018-08-06T01:45:26.958Z,1.30
2018-08-06T01:46:26.957Z,1.10
2018-08-06T01:47:26.963Z,1.40
2018-08-06T01:48:27.044Z,1.50
2018-08-06T01:49:26.902Z,1.30
2018-08-06T01:50:26.922Z,1.20
2018-08-06T01:51:27.949Z,1.30
2018-08-06T01:52:26.921Z,1.40
2018-08-06T01:53:26.926Z,1.40
2018-08-06T01:54:26.918Z,1.30
2018-08-06T01:55:26.988Z,1.20
2018-08-06T01:56:27.176Z,1.30
2018-08-06T01:57:26.951Z,1.50
2018-08-06T01:58:26.992Z,1.30
2018-08-06T01:59:26.938Z,1.20
2018-08-06T02:00:26.925Z,1.40
2018-08-06T02:01:26.929Z,1.30
2018-08-06T02:02:26.929Z,1.30
2018-08-06T02:03:26.963Z,1.20
2018-08-06T02:04:26.937Z,1.30
2018-08-06T02:05:26.971Z,1.30
2018-08-06T02:06:26.937Z,1.40
2018-08-06T02:07:26.943Z,1.30
2018-08-06T02:08:26.997Z,1.30
2018-08-06T02:09:26.971Z,1.40
2018-08-06T02:10:26.971Z,1.30
2018-08-06T02:11:26.971Z,1.30
2018-08-06T02:12:27.000Z,1.40
2018-08-06T02:13:27.001Z,1.20
2018-08-06T02:14:26.977Z,1.40
2018-08-06T02:15:27.055Z,1.50
2018-08-06T02:16:26.973Z,1.60
2018-08-06T02:17:27.044Z,1.40
2018-08-06T02:18:27.172Z,1.40
2018-08-06T02:19:26.980Z,1.30
2018-08-06T02:20:26.921Z,1.30
2018-08-06T02:21:26.912Z,1.50
2018-08-06T02:22:27.051Z,1.30
2018-08-06T02:23:26.963Z,1.40
2018-08-06T02:24:27.002Z,1.30
2018-08-06T02:25:26.987Z,1.30
2018-08-06T02:26:27.009Z,1.50
2018-08-06T02:27:26.999Z,1.50
2018-08-06T02:28:27.073Z,1.20
2018-08-06T02:29:26.995Z,1.40
2018-08-06T02:30:26.993Z,1.40
2018-08-06T02:31:26.941Z,1.40
2018-08-06T02:32:26.958Z,1.40
2018-08-06T02:33:27.048Z,1.20
2018-08-06T02:34:26.938Z,1.30
2018-08-06T02:35:27.342Z,1.50
2018-08-06T02:36:26.964Z,1.40
2018-08-06T02:37:27.020Z,1.50
2018-08-06T02:38:26.972Z,1.30
2018-08-06T02:39:27.000Z,1.50
2018-08-06T02:40:27.018Z,1.70
2018-08-06T02:41:27.008Z,1.60
2018-08-06T02:42:27.028Z,1.50
2018-08-06T02:43:26.971Z,1.40
2018-08-06T02:44:26.979Z,1.40
2018-08-06T02:45:26.951Z,1.20
2018-08-06T02:46:27.071Z,1.40
2018-08-06T02:47:27.099Z,1.50
2018-08-06T02:48:26.993Z,1.40
2018-08-06T02:49:26.979Z,1.40
2018-08-06T02:50:27.010Z,1.60
2018-08-06T02:51:27.051Z,1.50
2018-08-06T02:52:26.991Z,1.30
2018-08-06T02:53:27.020Z,1.50
2018-08-06T02:54:26.925Z,1.50
2018-08-06T02:55:27.003Z,1.50
2018-08-06T02:56:26.985Z,1.60
2018-08-06T02:57:26.986Z,1.60
2018-08-06T02:58:26.925Z,1.40
2018-08-06T02:59:26.986Z,1.50
2018-08-06T03:00:26.943Z,1.40
2018-08-06T03:01:27.011Z,1.40
2018-08-06T03:02:27.010Z,1.50
2018-08-06T03:03:27.026Z,1.20
2018-08-06T03:04:27.019Z,1.50
2018-08-06T03:05:26.971Z,1.50
2018-08-06T03:06:27.163Z,1.30
2018-08-06T03:07:27.093Z,1.60
2018-08-06T03:08:27.041Z,1.60
2018-08-06T03:09:27.000Z,1.60
2018-08-06T03:10:27.013Z,1.70
2018-08-06T03:11:27.005Z,1.60
2018-08-06T03:12:26.997Z,1.20
2018-08-06T03:13:27.007Z,1.50
2018-08-06T03:14:27.036Z,1.40
2018-08-06T03:15:27.033Z,1.60
2018-08-06T03:16:27.038Z,1.60
2018-08-06T03:17:27.200Z,1.50
2018-08-06T03:18:27.184Z,1.30
2018-08-06T03:19:26.984Z,1.50
2018-08-06T03:20:26.997Z,1.40
2018-08-06T03:21:27.042Z,1.50
2018-08-06T03:22:27.206Z,1.60
2018-08-06T03:23:27.212Z,1.30
2018-08-06T03:24:27.181Z,1.40
2018-08-06T03:25:27.208Z,1.80
2018-08-06T03:26:27.207Z,1.60
2018-08-06T03:27:27.211Z,1.60
2018-08-06T03:28:27.008Z,1.80
2018-08-06T03:29:27.209Z,1.40
2018-08-06T03:30:27.220Z,1.40
2018-08-06T03:31:27.212Z,1.40
2018-08-06T03:32:27.207Z,1.70
2018-08-06T03:33:27.257Z,1.60
2018-08-06T03:34:26.678Z,1.70
2018-08-06T03:35:27.545Z,1.50
2018-08-06T03:36:27.242Z,1.60
2018-08-06T03:37:27.684Z,1.60
2018-08-06T03:38:27.536Z,1.50
2018-08-06T03:39:27.128Z,1.70
2018-08-06T03:40:27.539Z,1.40
2018-08-06T03:41:27.016Z,1.50
2018-08-06T03:42:27.015Z,1.40
2018-08-06T03:43:27.030Z,1.60
2018-08-06T03:44:27.178Z,1.60
2018-08-06T03:45:27.024Z,1.40
2018-08-06T03:46:27.181Z,1.60
2018-08-06T03:47:27.059Z,1.50
2018-08-06T03:48:27.036Z,1.40
2018-08-06T03:49:27.194Z,1.40
2018-08-06T03:50:27.022Z,1.40
2018-08-06T03:51:27.064Z,1.50
2018-08-06T03:52:27.529Z,1.70
2018-08-06T03:53:27.012Z,1.70
2018-08-06T03:54:27.099Z,1.50
2018-08-06T03:55:27.553Z,1.40
2018-08-06T03:56:26.972Z,1.40
2018-08-06T03:57:27.524Z,1.90
2018-08-06T03:58:27.200Z,1.40
2018-08-06T03:59:27.250Z,1.70
2018-08-06T04:00:25.483Z,1.60
2018-08-06T04:01:26.199Z,1.60
2018-08-06T04:02:26.544Z,1.50
2018-08-06T04:03:26.155Z,1.80
2018-08-06T04:04:26.685Z,1.60
2018-08-06T04:05:27.009Z,1.70
2018-08-06T04:06:26.302Z,1.50
2018-08-06T04:07:26.243Z,1.70
2018-08-06T04:08:27.037Z,1.80
2018-08-06T04:09:26.981Z,1.80
2018-08-06T04:10:26.343Z,1.60
2018-08-06T04:11:27.031Z,1.80
2018-08-06T04:12:27.085Z,1.80
2018-08-06T04:13:25.482Z,1.80
2018-08-06T04:14:26.663Z,1.70
2018-08-06T04:15:27.030Z,1.90
2018-08-06T04:16:26.898Z,1.40
2018-08-06T04:17:27.063Z,1.60
2018-08-06T04:18:27.547Z,1.80
2018-08-06T04:19:26.994Z,1.90
2018-08-06T04:20:26.205Z,1.70
2018-08-06T04:21:26.992Z,1.60
2018-08-06T04:22:26.548Z,1.40
2018-08-06T04:23:26.799Z,1.80
2018-08-06T04:24:27.073Z,1.90
2018-08-06T04:25:27.592Z,1.60
2018-08-06T04:26:27.022Z,2.00
2018-08-06T04:27:27.027Z,1.70
2018-08-06T04:28:26.929Z,1.60
2018-08-06T04:29:26.975Z,1.60
2018-08-06T04:30:27.250Z,1.60
2018-08-06T04:31:27.543Z,1.50
2018-08-06T04:32:27.261Z,1.90
2018-08-06T04:33:27.070Z,2.00
2018-08-06T04:34:27.006Z,1.80
2018-08-06T04:35:27.060Z,1.60
2018-08-06T04:36:27.308Z,1.80
2018-08-06T04:37:27.211Z,1.80
2018-08-06T04:38:27.257Z,1.90
2018-08-06T04:39:27.019Z,1.50
2018-08-06T04:40:27.107Z,1.70
2018-08-06T04:41:27.196Z,2.00
2018-08-06T04:42:27.307Z,2.00
2018-08-06T04:43:27.529Z,2.00
2018-08-06T04:44:26.621Z,1.80
2018-08-06T04:45:27.576Z,2.00
2018-08-06T04:46:27.014Z,1.80
2018-08-06T04:47:27.199Z,2.10
2018-08-06T04:48:27.018Z,2.00
2018-08-06T04:49:27.549Z,1.80
2018-08-06T04:50:27.217Z,2.40
2018-08-06T04:51:25.483Z,1.80
2018-08-06T04:52:25.513Z,2.00
2018-08-06T04:53:27.086Z,1.90
2018-08-06T04:54:25.517Z,2.00
2018-08-06T04:55:29.187Z,1.90
2018-08-06T04:56:27.246Z,1.90
2018-08-06T04:57:26.716Z,1.80
2018-08-06T04:58:25.468Z,1.80
2018-08-06T04:59:27.072Z,2.00
2018-08-06T05:00:27.052Z,2.30
2018-08-06T05:01:25.480Z,2.10
2018-08-06T05:02:25.545Z,2.10
2018-08-06T05:03:25.553Z,2.20
2018-08-06T05:04:26.165Z,2.20
2018-08-06T05:05:25.574Z,2.20
2018-08-06T05:06:25.488Z,2.30
2018-08-06T05:07:28.038Z,2.20
2018-08-06T05:08:25.487Z,2.00
2018-08-06T05:09:26.569Z,2.20
2018-08-06T05:10:26.390Z,2.10
2018-08-06T05:11:27.079Z,2.00
2018-08-06T05:12:26.570Z,2.00
2018-08-06T05:13:25.491Z,2.10
2018-08-06T05:14:25.596Z,2.10
2018-08-06T05:15:26.363Z,2.10
2018-08-06T05:16:26.276Z,2.10
2018-08-06T05:17:26.480Z,1.90
2018-08-06T05:18:26.277Z,2.10
2018-08-06T05:19:25.556Z,2.00
2018-08-06T05:20:26.278Z,2.10
2018-08-06T05:21:27.272Z,2.30
2018-08-06T05:22:27.103Z,2.00
2018-08-06T05:23:27.225Z,1.90
2018-08-06T05:24:27.082Z,2.00
2018-08-06T05:25:26.969Z,2.10
2018-08-06T05:26:26.791Z,2.20
2018-08-06T05:27:25.485Z,2.10
2018-08-06T05:28:25.485Z,2.20
2018-08-06T05:29:26.326Z,2.00
2018-08-06T05:30:27.227Z,2.20
2018-08-06T05:31:27.270Z,2.20
2018-08-06T05:32:26.616Z,2.10
2018-08-06T05:33:25.622Z,2.10
2018-08-06T05:34:26.476Z,1.90
2018-08-06T05:35:26.498Z,2.00
2018-08-06T05:36:27.973Z,1.90
2018-08-06T05:37:27.269Z,2.00
2018-08-06T05:38:26.453Z,2.10
2018-08-06T05:39:27.185Z,2.30
2018-08-06T05:40:26.202Z,2.00
2018-08-06T05:41:26.832Z,2.10
2018-08-06T05:42:25.598Z,2.10
2018-08-06T05:43:25.529Z,2.10
2018-08-06T05:44:27.729Z,1.80
2018-08-06T05:45:25.584Z,2.10
2018-08-06T05:46:27.597Z,1.70
2018-08-06T05:47:26.608Z,2.00
2018-08-06T05:48:26.778Z,1.90
2018-08-06T05:49:25.482Z,1.90
2018-08-06T05:50:26.569Z,2.10
2018-08-06T05:51:27.376Z,2.00
2018-08-06T05:52:25.492Z,1.80
2018-08-06T05:53:26.287Z,2.00
2018-08-06T05:54:25.508Z,2.20
2018-08-06T05:55:27.108Z,2.10
2018-08-06T05:56:25.473Z,2.30
2018-08-06T05:57:25.577Z,2.10
2018-08-06T05:58:26.399Z,2.20
2018-08-06T05:59:27.592Z,2.20
2018-08-06T06:00:26.558Z,1.70
2018-08-06T06:01:26.407Z,2.00
2018-08-06T06:02:26.194Z,2.20
2018-08-06T06:03:25.546Z,2.10
2018-08-06T06:04:25.521Z,2.00
2018-08-06T06:05:26.597Z,2.00
2018-08-06T06:06:26.444Z,2.00
2018-08-06T06:07:27.132Z,1.80
2018-08-06T06:08:27.470Z,2.10
2018-08-06T06:09:26.285Z,1.70
2018-08-06T06:10:26.795Z,1.90
2018-08-06T06:11:25.527Z,1.80
2018-08-06T06:12:27.071Z,1.90
2018-08-06T06:13:26.576Z,1.70
2018-08-06T06:14:25.500Z,1.80
2018-08-06T06:15:26.839Z,1.70
2018-08-06T06:16:27.352Z,1.90
2018-08-06T06:17:27.092Z,1.90
2018-08-06T06:18:27.248Z,1.70
2018-08-06T06:19:26.750Z,2.00
2018-08-06T06:20:27.251Z,2.00
2018-08-06T06:21:27.698Z,1.90
2018-08-06T06:22:27.178Z,2.00
2018-08-06T06:23:27.243Z,2.10
2018-08-06T06:24:27.252Z,2.10
2018-08-06T06:25:27.244Z,1.90
2018-08-06T06:26:27.773Z,2.00
2018-08-06T06:27:27.263Z,2.10
2018-08-06T06:28:27.629Z,2.10
2018-08-06T06:29:27.123Z,2.00
2018-08-06T06:30:27.632Z,1.90
2018-08-06T06:31:27.496Z,2.10
2018-08-06T06:32:26.751Z,2.10
2018-08-06T06:33:27.351Z,2.10
2018-08-06T06:34:27.388Z,2.00
2018-08-06T06:35:27.123Z,1.90
2018-08-06T06:36:27.324Z,2.10
2018-08-06T06:37:27.301Z,2.20
2018-08-06T06:38:27.608Z,1.90
2018-08-06T06:39:27.349Z,2.10
2018-08-06T06:40:27.517Z,2.00
2018-08-06T06:41:27.325Z,1.90
2018-08-06T06:42:28.857Z,2.10
2018-08-06T06:43:27.316Z,1.90
2018-08-06T06:44:27.132Z,1.90
2018-08-06T06:45:27.613Z,1.70
2018-08-06T06:46:27.479Z,2.00
2018-08-06T06:47:27.354Z,2.10
2018-08-06T06:48:27.127Z,1.90
2018-08-06T06:49:27.460Z,2.00
2018-08-06T06:50:27.620Z,2.10
2018-08-06T06:51:27.766Z,2.00
2018-08-06T06:52:27.257Z,2.20
2018-08-06T06:53:27.352Z,2.00
2018-08-06T06:54:26.872Z,1.80
2018-08-06T06:55:27.274Z,2.30
2018-08-06T06:56:27.127Z,2.10
2018-08-06T06:57:27.734Z,2.10
2018-08-06T06:58:26.597Z,2.10
2018-08-06T06:59:27.314Z,2.30
2018-08-06T07:00:27.618Z,2.10
2018-08-06T07:01:27.357Z,1.90
2018-08-06T07:02:27.687Z,2.20
2018-08-06T07:03:27.647Z,1.80
2018-08-06T07:04:27.261Z,1.90
2018-08-06T07:05:27.073Z,2.10
2018-08-06T07:06:27.852Z,1.70
2018-08-06T07:07:26.749Z,1.90
2018-08-06T07:08:27.704Z,1.60
2018-08-06T07:09:27.042Z,1.60
2018-08-06T07:10:27.627Z,1.70
2018-08-06T07:11:27.668Z,1.80
2018-08-06T07:12:27.773Z,1.90
2018-08-06T07:13:27.600Z,2.10
2018-08-06T07:14:27.923Z,2.00
2018-08-06T07:15:27.628Z,2.10
2018-08-06T07:16:27.267Z,2.20
2018-08-06T07:17:27.378Z,2.00
2018-08-06T07:18:27.826Z,1.80
2018-08-06T07:19:26.866Z,2.00
2018-08-06T07:20:27.263Z,1.90
2018-08-06T07:21:27.128Z,1.90
2018-08-06T07:22:26.662Z,1.90
2018-08-06T07:23:27.381Z,1.90
2018-08-06T07:25:27.613Z,1.80
2018-08-06T07:26:27.629Z,1.50
2018-08-06T07:27:27.281Z,1.80
2018-08-06T07:28:27.757Z,1.90
2018-08-06T07:29:27.729Z,1.70
2018-08-06T07:30:26.595Z,1.80
2018-08-06T07:31:27.774Z,1.60
2018-08-06T07:32:27.320Z,1.90
2018-08-06T07:33:27.615Z,1.80
2018-08-06T07:34:27.295Z,1.60
2018-08-06T07:35:27.396Z,1.70
2018-08-06T07:36:27.128Z,1.50
2018-08-06T07:37:27.150Z,1.60
2018-08-06T07:38:27.097Z,1.70
2018-08-06T07:39:27.188Z,1.70
2018-08-06T07:40:27.276Z,1.90
2018-08-06T07:41:27.145Z,1.70
2018-08-06T07:42:27.120Z,1.90
2018-08-06T07:43:27.274Z,1.80
2018-08-06T07:44:27.746Z,1.80
2018-08-06T07:45:27.647Z,2.00
2018-08-06T07:46:27.652Z,1.90
2018-08-06T07:47:27.644Z,1.80
2018-08-06T07:48:27.786Z,1.80
2018-08-06T07:49:27.236Z,1.80
2018-08-06T07:50:27.639Z,1.70
2018-08-06T07:51:27.108Z,1.60
2018-08-06T07:52:27.637Z,1.60
2018-08-06T07:53:27.478Z,1.60
2018-08-06T07:54:27.278Z,1.80
2018-08-06T07:55:26.778Z,1.70
2018-08-06T07:56:27.635Z,1.60
2018-08-06T07:57:27.161Z,1.70
2018-08-06T07:58:27.635Z,1.60
2018-08-06T07:59:27.287Z,1.80
2018-08-06T08:00:27.286Z,1.80
2018-08-06T08:01:27.384Z,1.60
2018-08-06T08:02:27.286Z,1.60
2018-08-06T08:03:27.283Z,1.50
2018-08-06T08:04:26.793Z,2.10
2018-08-06T08:05:27.189Z,1.80
2018-08-06T08:06:27.326Z,1.70
2018-08-06T08:07:27.306Z,2.20
2018-08-06T08:08:27.315Z,2.00
2018-08-06T08:09:27.112Z,1.70
2018-08-06T08:10:28.939Z,2.00
2018-08-06T08:11:27.456Z,2.00
2018-08-06T08:12:27.141Z,2.00
2018-08-06T08:13:27.118Z,2.00
2018-08-06T08:14:27.519Z,2.00
2018-08-06T08:15:27.385Z,1.80
2018-08-06T08:16:27.108Z,1.80
2018-08-06T08:17:27.652Z,1.50
2018-08-06T08:18:27.397Z,1.40
2018-08-06T08:19:27.165Z,1.60
2018-08-06T08:20:27.662Z,1.50
2018-08-06T08:21:27.171Z,1.50
2018-08-06T08:22:27.397Z,1.50
2018-08-06T08:23:27.294Z,1.50
2018-08-06T08:24:27.650Z,1.40
2018-08-06T08:25:27.415Z,1.70
2018-08-06T08:26:27.722Z,1.50
2018-08-06T08:27:27.667Z,1.50
2018-08-06T08:28:26.796Z,1.50
2018-08-06T08:29:27.690Z,1.40
2018-08-06T08:30:27.298Z,1.60
2018-08-06T08:31:27.720Z,1.40
2018-08-06T08:32:27.294Z,1.40
2018-08-06T08:33:27.138Z,1.60
2018-08-06T08:34:27.601Z,1.30
2018-08-06T08:35:26.855Z,1.40
2018-08-06T08:36:27.195Z,1.70
2018-08-06T08:37:27.296Z,1.70
2018-08-06T08:38:27.214Z,1.50
2018-08-06T08:39:27.786Z,1.40
2018-08-06T08:40:27.592Z,1.70
2018-08-06T08:41:27.195Z,1.50
2018-08-06T08:42:27.655Z,1.60
2018-08-06T08:43:27.321Z,1.50
2018-08-06T08:44:27.452Z,1.60
2018-08-06T08:45:26.801Z,1.60
2018-08-06T08:46:27.137Z,1.20
2018-08-06T08:47:27.165Z,1.50
2018-08-06T08:48:27.460Z,1.30
2018-08-06T08:49:26.841Z,1.50
2018-08-06T08:50:27.752Z,1.50
2018-08-06T08:51:27.151Z,1.40
2018-08-06T08:52:28.963Z,1.40
2018-08-06T08:53:27.350Z,1.50
2018-08-06T08:54:27.177Z,1.30
2018-08-06T08:55:27.307Z,1.50
2018-08-06T08:56:27.661Z,1.50
2018-08-06T08:57:27.223Z,1.30
2018-08-06T08:58:27.688Z,1.30
2018-08-06T08:59:27.180Z,1.20
2018-08-06T09:00:27.209Z,1.50
2018-08-06T09:01:27.217Z,1.30
2018-08-06T09:02:27.224Z,1.20
2018-08-06T09:03:27.410Z,1.70
2018-08-06T09:04:27.655Z,1.40
2018-08-06T09:05:27.775Z,1.40
2018-08-06T09:06:27.696Z,1.30
2018-08-06T09:07:27.963Z,1.30
2018-08-06T09:08:26.816Z,1.50
2018-08-06T09:09:27.137Z,1.50
2018-08-06T09:10:26.813Z,1.50
2018-08-06T09:11:27.418Z,1.30
2018-08-06T09:12:27.189Z,1.50
2018-08-06T09:13:27.193Z,1.40
2018-08-06T09:14:27.216Z,1.50
2018-08-06T09:15:27.338Z,1.40
2018-08-06T09:16:27.312Z,1.30
2018-08-06T09:17:27.702Z,1.40
2018-08-06T09:18:27.288Z,1.40
2018-08-06T09:19:27.669Z,1.40
2018-08-06T09:20:27.316Z,1.40
2018-08-06T09:21:27.316Z,1.50
2018-08-06T09:23:33.321Z,1.40
2018-08-06T09:24:28.171Z,1.60
2018-08-06T09:25:27.621Z,1.50
2018-08-06T09:26:27.404Z,1.50
2018-08-06T09:27:27.677Z,1.50
2018-08-06T09:28:27.322Z,1.60
2018-08-06T09:29:27.397Z,1.40
2018-08-06T09:30:27.469Z,1.40
2018-08-06T09:31:27.242Z,1.60
2018-08-06T09:32:28.043Z,1.50
2018-08-06T09:33:27.308Z,1.30
2018-08-06T09:34:27.848Z,1.30
2018-08-06T09:35:27.433Z,1.40
2018-08-06T09:36:27.956Z,1.40
2018-08-06T09:37:27.419Z,1.50
2018-08-06T09:38:28.371Z,1.50
2018-08-06T09:39:27.321Z,1.60
2018-08-06T09:40:27.384Z,1.40
2018-08-06T09:41:27.418Z,1.40
2018-08-06T09:42:27.173Z,1.50
2018-08-06T09:43:27.326Z,1.40
2018-08-06T09:44:27.810Z,1.40
2018-08-06T09:45:27.834Z,1.40
2018-08-06T09:46:27.582Z,1.30
2018-08-06T09:47:27.383Z,1.30
2018-08-06T09:48:27.604Z,1.40
2018-08-06T09:49:27.760Z,1.50
2018-08-06T09:50:27.330Z,1.20
2018-08-06T09:51:27.811Z,1.30
2018-08-06T09:52:27.751Z,1.40
2018-08-06T09:53:27.405Z,1.50
2018-08-06T09:54:27.265Z,1.40
2018-08-06T09:55:27.754Z,1.50
2018-08-06T09:56:27.802Z,1.40
2018-08-06T09:57:27.388Z,1.20
2018-08-06T09:58:27.315Z,1.40
2018-08-06T09:59:27.294Z,1.50
2018-08-06T10:00:27.407Z,1.30
2018-08-06T10:01:27.279Z,1.30
2018-08-06T10:02:27.469Z,1.80
2018-08-06T10:03:27.318Z,1.60
2018-08-06T10:04:27.809Z,1.80
2018-08-06T10:05:27.670Z,1.60
2018-08-06T10:06:28.093Z,1.50
2018-08-06T10:07:27.066Z,1.60
2018-08-06T10:08:27.829Z,1.50
2018-08-06T10:09:27.890Z,1.40
2018-08-06T10:10:26.951Z,1.40
2018-08-06T10:11:27.341Z,1.30
2018-08-06T10:12:27.250Z,1.50
2018-08-06T10:13:27.701Z,1.30
2018-08-06T10:14:27.336Z,1.30
2018-08-06T10:15:28.246Z,1.50
2018-08-06T10:16:27.765Z,1.60
2018-08-06T10:17:27.757Z,1.60
2018-08-06T10:18:27.395Z,1.70
2018-08-06T10:19:28.101Z,1.30
2018-08-06T10:20:29.236Z,1.40
2018-08-06T10:21:27.697Z,1.40
2018-08-06T10:22:27.536Z,1.60
2018-08-06T10:23:27.397Z,1.60
2018-08-06T10:24:27.451Z,1.40
2018-08-06T10:25:27.522Z,1.70
2018-08-06T10:26:27.322Z,1.50
2018-08-06T10:27:27.848Z,1.30
2018-08-06T10:28:27.855Z,1.50
2018-08-06T10:29:27.897Z,1.70
2018-08-06T10:30:27.467Z,1.40
2018-08-06T10:31:27.801Z,1.40
2018-08-06T10:32:26.992Z,1.50
2018-08-06T10:33:27.910Z,1.50
2018-08-06T10:34:27.525Z,1.40
2018-08-06T10:35:27.931Z,1.60
2018-08-06T10:36:27.521Z,1.40
2018-08-06T10:37:27.798Z,1.30
2018-08-06T10:38:26.943Z,1.50
2018-08-06T10:39:27.804Z,1.40
2018-08-06T10:40:27.433Z,1.80
2018-08-06T10:41:27.537Z,1.60
2018-08-06T10:42:29.605Z,1.60
2018-08-06T10:43:27.639Z,1.50
2018-08-06T10:44:27.768Z,1.40
2018-08-06T10:45:27.601Z,1.50
2018-08-06T10:46:27.483Z,1.60
2018-08-06T10:47:27.793Z,1.60
2018-08-06T10:48:27.471Z,1.40
2018-08-06T10:49:27.428Z,1.50
2018-08-06T10:50:27.418Z,1.60
2018-08-06T10:51:27.937Z,1.50
2018-08-06T10:52:29.727Z,1.60
2018-08-06T10:53:28.311Z,1.50
2018-08-06T10:54:30.110Z,1.60
2018-08-06T10:55:27.654Z,1.60
2018-08-06T10:56:27.442Z,1.50
2018-08-06T10:57:29.409Z,1.60
2018-08-06T10:58:28.364Z,1.50
2018-08-06T10:59:28.226Z,1.70
2018-08-06T11:00:27.860Z,1.80
2018-08-06T11:01:27.861Z,1.70
2018-08-06T11:02:30.219Z,1.40
2018-08-06T11:03:28.331Z,1.80
2018-08-06T11:04:28.925Z,1.80
2018-08-06T11:05:29.873Z,1.60
2018-08-06T11:06:28.062Z,1.60
2018-08-06T11:07:27.814Z,1.60
2018-08-06T11:08:28.366Z,1.80
2018-08-06T11:09:28.341Z,1.70
2018-08-06T11:10:28.425Z,1.60
2018-08-06T11:11:28.361Z,1.60
2018-08-06T11:12:27.446Z,1.50
2018-08-06T11:13:28.734Z,1.60
2018-08-06T11:14:29.563Z,1.50
2018-08-06T11:15:27.726Z,1.70
2018-08-06T11:16:27.755Z,1.70
2018-08-06T11:17:27.685Z,1.70
2018-08-06T11:18:28.227Z,1.70
2018-08-06T11:19:27.717Z,1.80
2018-08-06T11:20:28.336Z,1.70
2018-08-06T11:21:27.750Z,1.40
2018-08-06T11:22:27.876Z,1.40
2018-08-06T11:23:27.965Z,1.70
2018-08-06T11:24:27.989Z,1.60
2018-08-06T11:25:28.244Z,1.60
2018-08-06T11:26:27.794Z,1.70
2018-08-06T11:27:27.876Z,1.70
2018-08-06T11:28:27.919Z,1.70
2018-08-06T11:29:28.463Z,1.80
2018-08-06T11:30:27.899Z,1.90
2018-08-06T11:31:27.971Z,1.80
2018-08-06T11:32:28.109Z,1.70
2018-08-06T11:33:27.747Z,1.80
2018-08-06T11:34:27.773Z,1.60
2018-08-06T11:35:27.289Z,1.80
2018-08-06T11:36:27.777Z,1.60
2018-08-06T11:37:28.462Z,1.70
2018-08-06T11:38:27.971Z,1.70
2018-08-06T11:39:28.471Z,1.70
2018-08-06T11:40:27.902Z,1.80
2018-08-06T11:41:27.756Z,1.60
2018-08-06T11:42:27.885Z,1.70
2018-08-06T11:43:27.381Z,1.70
2018-08-06T11:44:27.935Z,1.90
2018-08-06T11:45:30.335Z,1.60
2018-08-06T11:46:27.435Z,1.50
2018-08-06T11:47:27.946Z,1.70
2018-08-06T11:48:27.931Z,1.70
2018-08-06T11:49:27.926Z,1.90
2018-08-06T11:50:27.976Z,1.90
2018-08-06T11:51:27.892Z,1.60
2018-08-06T11:52:28.012Z,1.70
2018-08-06T11:53:27.974Z,1.80
2018-08-06T11:54:27.705Z,1.50
2018-08-06T11:55:27.912Z,1.60
2018-08-06T11:56:28.311Z,1.80
2018-08-06T11:57:27.695Z,1.70
2018-08-06T11:58:28.254Z,1.50
2018-08-06T11:59:27.826Z,1.70
2018-08-06T12:00:30.564Z,1.80
2018-08-06T12:01:27.790Z,1.50
2018-08-06T12:02:27.958Z,1.60
2018-08-06T12:03:27.781Z,1.60
2018-08-06T12:04:27.771Z,1.90
2018-08-06T12:05:27.797Z,1.70
2018-08-06T12:06:27.796Z,1.80
2018-08-06T12:07:28.297Z,1.50
2018-08-06T12:08:28.394Z,1.90
2018-08-06T12:09:27.903Z,1.60
2018-08-06T12:10:27.707Z,1.60
2018-08-06T12:11:28.369Z,1.90
2018-08-06T12:12:27.765Z,1.70
2018-08-06T12:13:27.905Z,1.80
2018-08-06T12:14:27.903Z,1.60
2018-08-06T12:15:28.016Z,1.80
2018-08-06T12:16:29.808Z,1.70
2018-08-06T12:17:27.940Z,1.70
2018-08-06T12:18:28.185Z,1.80
2018-08-06T12:19:27.944Z,1.80
2018-08-06T12:20:28.366Z,1.50
2018-08-06T12:21:28.469Z,1.90
2018-08-06T12:22:27.909Z,1.90
2018-08-06T12:23:28.487Z,1.80
2018-08-06T12:24:27.476Z,1.80
2018-08-06T12:25:27.922Z,1.80
2018-08-06T12:26:27.861Z,1.80
2018-08-06T12:27:27.911Z,2.00
2018-08-06T12:28:27.847Z,1.90
2018-08-06T12:29:28.600Z,1.80
2018-08-06T12:30:28.273Z,2.00
2018-08-06T12:31:27.929Z,1.60
2018-08-06T12:32:27.896Z,1.70
2018-08-06T12:33:28.478Z,1.70
2018-08-06T12:34:28.464Z,1.70
2018-08-06T12:35:28.432Z,1.70
2018-08-06T12:36:28.438Z,1.70
2018-08-06T12:37:28.228Z,1.40
2018-08-06T12:38:28.232Z,1.50
2018-08-06T12:39:28.431Z,1.40
2018-08-06T12:40:28.780Z,1.50
2018-08-06T12:41:28.527Z,1.40
2018-08-06T12:42:28.357Z,1.60
2018-08-06T12:43:30.164Z,1.50
2018-08-06T12:44:28.517Z,1.50
2018-08-06T12:45:28.458Z,1.60
2018-08-06T12:46:28.417Z,1.50
2018-08-06T12:47:28.778Z,1.40
2018-08-06T12:48:28.422Z,1.50
2018-08-06T12:49:28.289Z,1.40
2018-08-06T12:50:28.802Z,1.50
2018-08-06T12:51:28.464Z,1.40
2018-08-06T12:52:28.863Z,1.50
2018-08-06T12:53:28.799Z,1.50
2018-08-06T12:54:28.446Z,1.40
2018-08-06T12:55:28.422Z,1.40
2018-08-06T12:56:28.572Z,1.40
2018-08-06T12:57:28.910Z,1.40
2018-08-06T12:58:28.980Z,1.30
2018-08-06T12:59:27.991Z,1.60
2018-08-06T13:00:28.391Z,1.50
2018-08-06T13:01:28.359Z,1.40
2018-08-06T13:02:28.437Z,1.70
2018-08-06T13:03:28.443Z,1.60
2018-08-06T13:04:28.593Z,1.40
2018-08-06T13:05:29.287Z,1.40
2018-08-06T13:06:28.946Z,1.50
2018-08-06T13:07:29.324Z,1.20
2018-08-06T13:08:30.038Z,1.30
2018-08-06T13:09:29.288Z,1.50
2018-08-06T13:10:29.338Z,1.50
2018-08-06T13:11:34.934Z,1.50
2018-08-06T13:12:29.295Z,1.50
2018-08-06T13:13:29.297Z,1.60
2018-08-06T13:14:29.299Z,1.50
2018-08-06T13:15:29.006Z,1.70
2018-08-06T13:16:29.332Z,1.60
2018-08-06T13:17:29.450Z,1.70
2018-08-06T13:18:29.290Z,1.50
2018-08-06T13:19:29.287Z,1.50
2018-08-06T13:20:28.970Z,1.50
2018-08-06T13:21:29.341Z,1.70